sensor_id;sensor_type;location;lat;lon;timestamp;temperature;humidity
9399;DHT22;4739;49.334;8.792;2023-01-05T00:01:33;11.00;99.90
9399;DHT22;4739;49.334;8.792;2023-01-05T00:03:58;11.00;99.90
9399;DHT22;4739;49.334;8.792;2023-01-05T00:06:24;10.90;99.90
9399;DHT22;4739;49.334;8.792;2023-01-05T00:08:50;11.00;99.90
9399;DHT22;4739;49.334;8.792;2023-01-05T00:11:23;11.00;99.90
9399;DHT22;4739;49.334;8.792;2023-01-05T00:14:19;11.00;99.90
9399;DHT22;4739;49.334;8.792;2023-01-05T00:17:04;10.90;99.90
9399;DHT22;4739;49.334;8.792;2023-01-05T00:19:49;10.90;99.90
9399;DHT22;4739;49.334;8.792;2023-01-05T00:22:40;11.00;99.90
9399;DHT22;4739;49.334;8.792;2023-01-05T00:25:28;11.00;99.90
9399;DHT22;4739;49.334;8.792;2023-01-05T00:27:54;10.90;99.90
9399;DHT22;4739;49.334;8.792;2023-01-05T00:30:44;10.90;99.90
9399;DHT22;4739;49.334;8.792;2023-01-05T00:33:18;10.90;99.90
9399;DHT22;4739;49.334;8.792;2023-01-05T00:35:43;10.90;99.90
9399;DHT22;4739;49.334;8.792;2023-01-05T00:38:09;10.90;99.90
9399;DHT22;4739;49.334;8.792;2023-01-05T00:40:35;10.90;99.90
9399;DHT22;4739;49.334;8.792;2023-01-05T00:43:01;11.00;99.90
9399;DHT22;4739;49.334;8.792;2023-01-05T00:45:27;11.00;99.90
9399;DHT22;4739;49.334;8.792;2023-01-05T00:47:52;10.90;99.90
9399;DHT22;4739;49.334;8.792;2023-01-05T00:50:21;11.00;99.90
9399;DHT22;4739;49.334;8.792;2023-01-05T00:52:47;11.00;99.90
9399;DHT22;4739;49.334;8.792;2023-01-05T00:55:13;11.00;99.90
9399;DHT22;4739;49.334;8.792;2023-01-05T00:57:39;10.80;99.90
9399;DHT22;4739;49.334;8.792;2023-01-05T01:00:07;11.00;99.90
9399;DHT22;4739;49.334;8.792;2023-01-05T01:02:33;11.10;99.90
9399;DHT22;4739;49.334;8.792;2023-01-05T01:04:59;11.10;99.90
9399;DHT22;4739;49.334;8.792;2023-01-05T01:07:25;11.10;99.90
9399;DHT22;4739;49.334;8.792;2023-01-05T01:09:50;11.10;99.90
9399;DHT22;4739;49.334;8.792;2023-01-05T01:12:16;11.10;99.90
9399;DHT22;4739;49.334;8.792;2023-01-05T01:14:44;11.00;99.90
9399;DHT22;4739;49.334;8.792;2023-01-05T01:17:10;11.00;99.90
9399;DHT22;4739;49.334;8.792;2023-01-05T01:19:36;11.00;99.90
9399;DHT22;4739;49.334;8.792;2023-01-05T01:22:01;11.00;99.90
9399;DHT22;4739;49.334;8.792;2023-01-05T01:24:27;11.00;99.90
9399;DHT22;4739;49.334;8.792;2023-01-05T01:26:54;11.00;99.90
9399;DHT22;4739;49.334;8.792;2023-01-05T01:29:20;11.10;99.90
9399;DHT22;4739;49.334;8.792;2023-01-05T01:31:47;11.10;99.90
9399;DHT22;4739;49.334;8.792;2023-01-05T01:34:13;11.10;99.90
9399;DHT22;4739;49.334;8.792;2023-01-05T01:36:38;11.10;99.90
9399;DHT22;4739;49.334;8.792;2023-01-05T01:39:04;11.10;99.90
9399;DHT22;4739;49.334;8.792;2023-01-05T01:41:29;11.10;99.90
9399;DHT22;4739;49.334;8.792;2023-01-05T01:43:56;11.10;99.90
9399;DHT22;4739;49.334;8.792;2023-01-05T01:46:23;11.10;99.90
9399;DHT22;4739;49.334;8.792;2023-01-05T01:49:03;11.10;99.90
9399;DHT22;4739;49.334;8.792;2023-01-05T01:51:36;11.30;99.90
9399;DHT22;4739;49.334;8.792;2023-01-05T01:54:07;11.00;99.90
9399;DHT22;4739;49.334;8.792;2023-01-05T01:56:37;11.20;99.90
9399;DHT22;4739;49.334;8.792;2023-01-05T01:59:05;10.80;99.90
9399;DHT22;4739;49.334;8.792;2023-01-05T02:01:31;11.00;99.90
9399;DHT22;4739;49.334;8.792;2023-01-05T02:03:58;11.10;99.90
9399;DHT22;4739;49.334;8.792;2023-01-05T02:06:24;11.10;99.90
9399;DHT22;4739;49.334;8.792;2023-01-05T02:08:50;11.10;99.90
9399;DHT22;4739;49.334;8.792;2023-01-05T02:11:40;11.00;99.90
9399;DHT22;4739;49.334;8.792;2023-01-05T02:14:30;11.10;99.90
9399;DHT22;4739;49.334;8.792;2023-01-05T02:25:36;11.20;99.90
9399;DHT22;4739;49.334;8.792;2023-01-05T02:28:27;11.10;99.90
9399;DHT22;4739;49.334;8.792;2023-01-05T02:30:59;11.10;99.90
9399;DHT22;4739;49.334;8.792;2023-01-05T02:33:54;10.70;99.90
9399;DHT22;4739;49.334;8.792;2023-01-05T02:39:17;11.10;99.90
9399;DHT22;4739;49.334;8.792;2023-01-05T02:41:57;11.10;99.90
9399;DHT22;4739;49.334;8.792;2023-01-05T02:44:27;11.10;99.90
9399;DHT22;4739;49.334;8.792;2023-01-05T02:47:05;11.10;99.90
9399;DHT22;4739;49.334;8.792;2023-01-05T02:49:35;11.30;99.90
9399;DHT22;4739;49.334;8.792;2023-01-05T02:52:04;10.80;99.90
9399;DHT22;4739;49.334;8.792;2023-01-05T02:54:36;11.10;99.90
9399;DHT22;4739;49.334;8.792;2023-01-05T02:57:10;10.80;99.90
9399;DHT22;4739;49.334;8.792;2023-01-05T03:02:17;10.60;99.90
9399;DHT22;4739;49.334;8.792;2023-01-05T03:05:04;11.00;99.90
9399;DHT22;4739;49.334;8.792;2023-01-05T03:07:35;11.00;99.90
9399;DHT22;4739;49.334;8.792;2023-01-05T03:10:02;11.10;99.90
9399;DHT22;4739;49.334;8.792;2023-01-05T03:12:50;11.10;99.90
9399;DHT22;4739;49.334;8.792;2023-01-05T03:15:51;11.20;99.90
9399;DHT22;4739;49.334;8.792;2023-01-05T03:18:24;11.10;99.90
9399;DHT22;4739;49.334;8.792;2023-01-05T03:20:51;11.20;99.90
9399;DHT22;4739;49.334;8.792;2023-01-05T03:23:19;11.20;99.90
9399;DHT22;4739;49.334;8.792;2023-01-05T03:26:07;11.20;99.90
9399;DHT22;4739;49.334;8.792;2023-01-05T03:28:55;11.10;99.90
9399;DHT22;4739;49.334;8.792;2023-01-05T03:31:47;11.20;99.90
9399;DHT22;4739;49.334;8.792;2023-01-05T03:34:55;11.20;99.90
9399;DHT22;4739;49.334;8.792;2023-01-05T03:37:51;11.20;99.90
9399;DHT22;4739;49.334;8.792;2023-01-05T03:40:25;11.30;99.90
9399;DHT22;4739;49.334;8.792;2023-01-05T03:42:53;11.30;99.90
9399;DHT22;4739;49.334;8.792;2023-01-05T03:45:20;11.20;99.90
9399;DHT22;4739;49.334;8.792;2023-01-05T03:47:46;11.40;99.90
9399;DHT22;4739;49.334;8.792;2023-01-05T03:50:12;11.40;99.90
9399;DHT22;4739;49.334;8.792;2023-01-05T03:52:38;11.20;99.90
9399;DHT22;4739;49.334;8.792;2023-01-05T03:55:03;11.40;99.90
9399;DHT22;4739;49.334;8.792;2023-01-05T03:57:29;11.40;99.90
9399;DHT22;4739;49.334;8.792;2023-01-05T03:59:55;11.40;99.90
9399;DHT22;4739;49.334;8.792;2023-01-05T04:02:20;11.30;99.90
9399;DHT22;4739;49.334;8.792;2023-01-05T04:04:46;11.30;99.90
9399;DHT22;4739;49.334;8.792;2023-01-05T04:07:11;11.20;99.90
9399;DHT22;4739;49.334;8.792;2023-01-05T04:09:37;10.90;99.90
9399;DHT22;4739;49.334;8.792;2023-01-05T04:12:02;11.30;99.90
9399;DHT22;4739;49.334;8.792;2023-01-05T04:14:28;11.40;99.90
9399;DHT22;4739;49.334;8.792;2023-01-05T04:16:53;11.30;99.90
9399;DHT22;4739;49.334;8.792;2023-01-05T04:19:19;11.20;99.90
9399;DHT22;4739;49.334;8.792;2023-01-05T04:21:45;11.30;99.90
9399;DHT22;4739;49.334;8.792;2023-01-05T04:24:11;11.20;99.90
9399;DHT22;4739;49.334;8.792;2023-01-05T04:26:36;11.20;99.90
9399;DHT22;4739;49.334;8.792;2023-01-05T04:29:04;11.00;99.90
9399;DHT22;4739;49.334;8.792;2023-01-05T04:31:29;11.20;99.90
9399;DHT22;4739;49.334;8.792;2023-01-05T04:33:55;11.20;99.90
9399;DHT22;4739;49.334;8.792;2023-01-05T04:36:21;11.10;99.90
9399;DHT22;4739;49.334;8.792;2023-01-05T04:38:46;11.10;99.90
9399;DHT22;4739;49.334;8.792;2023-01-05T04:41:12;11.30;99.90
9399;DHT22;4739;49.334;8.792;2023-01-05T04:43:37;11.00;99.90
9399;DHT22;4739;49.334;8.792;2023-01-05T04:46:04;11.10;99.90
9399;DHT22;4739;49.334;8.792;2023-01-05T04:48:29;10.70;99.90
9399;DHT22;4739;49.334;8.792;2023-01-05T04:50:56;11.10;99.90
9399;DHT22;4739;49.334;8.792;2023-01-05T04:53:22;10.90;99.90
9399;DHT22;4739;49.334;8.792;2023-01-05T04:55:48;11.10;99.90
9399;DHT22;4739;49.334;8.792;2023-01-05T04:58:14;11.20;99.90
9399;DHT22;4739;49.334;8.792;2023-01-05T05:00:40;10.90;99.90
9399;DHT22;4739;49.334;8.792;2023-01-05T05:03:06;11.20;99.90
9399;DHT22;4739;49.334;8.792;2023-01-05T05:05:32;11.20;99.90
9399;DHT22;4739;49.334;8.792;2023-01-05T05:07:57;11.20;99.90
9399;DHT22;4739;49.334;8.792;2023-01-05T05:10:23;11.30;99.90
9399;DHT22;4739;49.334;8.792;2023-01-05T05:12:48;11.00;99.90
9399;DHT22;4739;49.334;8.792;2023-01-05T05:15:14;11.10;99.90
9399;DHT22;4739;49.334;8.792;2023-01-05T05:17:40;11.20;99.90
9399;DHT22;4739;49.334;8.792;2023-01-05T05:20:06;11.10;99.90
9399;DHT22;4739;49.334;8.792;2023-01-05T05:22:31;11.10;99.90
9399;DHT22;4739;49.334;8.792;2023-01-05T05:24:57;11.00;99.90
9399;DHT22;4739;49.334;8.792;2023-01-05T05:27:22;10.90;99.90
9399;DHT22;4739;49.334;8.792;2023-01-05T05:29:48;11.10;99.90
9399;DHT22;4739;49.334;8.792;2023-01-05T05:32:14;10.90;99.90
9399;DHT22;4739;49.334;8.792;2023-01-05T05:34:39;10.80;99.90
9399;DHT22;4739;49.334;8.792;2023-01-05T05:37:05;10.90;99.90
9399;DHT22;4739;49.334;8.792;2023-01-05T05:39:31;10.90;99.90
9399;DHT22;4739;49.334;8.792;2023-01-05T05:41:56;10.90;99.90
9399;DHT22;4739;49.334;8.792;2023-01-05T05:44:22;10.90;99.90
9399;DHT22;4739;49.334;8.792;2023-01-05T05:46:47;10.90;99.90
9399;DHT22;4739;49.334;8.792;2023-01-05T05:49:13;10.90;99.90
9399;DHT22;4739;49.334;8.792;2023-01-05T05:51:39;10.90;99.90
9399;DHT22;4739;49.334;8.792;2023-01-05T05:54:04;10.80;99.90
9399;DHT22;4739;49.334;8.792;2023-01-05T05:56:30;10.60;99.90
9399;DHT22;4739;49.334;8.792;2023-01-05T05:58:55;10.90;99.90
9399;DHT22;4739;49.334;8.792;2023-01-05T06:01:22;11.00;99.90
9399;DHT22;4739;49.334;8.792;2023-01-05T06:03:47;11.00;99.90
9399;DHT22;4739;49.334;8.792;2023-01-05T06:06:13;10.90;99.90
9399;DHT22;4739;49.334;8.792;2023-01-05T06:08:39;11.00;99.90
9399;DHT22;4739;49.334;8.792;2023-01-05T06:11:04;11.00;99.90
9399;DHT22;4739;49.334;8.792;2023-01-05T06:13:30;11.00;99.90
9399;DHT22;4739;49.334;8.792;2023-01-05T06:15:56;10.90;99.90
9399;DHT22;4739;49.334;8.792;2023-01-05T06:18:21;11.00;99.90
9399;DHT22;4739;49.334;8.792;2023-01-05T06:20:47;11.00;99.90
9399;DHT22;4739;49.334;8.792;2023-01-05T06:23:13;11.00;99.90
9399;DHT22;4739;49.334;8.792;2023-01-05T06:25:39;11.10;99.90
9399;DHT22;4739;49.334;8.792;2023-01-05T06:28:05;11.00;99.90
9399;DHT22;4739;49.334;8.792;2023-01-05T06:30:31;11.00;99.90
9399;DHT22;4739;49.334;8.792;2023-01-05T06:32:56;11.00;99.90
9399;DHT22;4739;49.334;8.792;2023-01-05T06:35:22;11.00;99.90
9399;DHT22;4739;49.334;8.792;2023-01-05T06:37:48;11.00;99.90
9399;DHT22;4739;49.334;8.792;2023-01-05T06:40:14;11.00;99.90
9399;DHT22;4739;49.334;8.792;2023-01-05T06:42:40;11.00;99.90
9399;DHT22;4739;49.334;8.792;2023-01-05T06:45:08;11.00;99.90
9399;DHT22;4739;49.334;8.792;2023-01-05T06:47:34;10.90;99.90
9399;DHT22;4739;49.334;8.792;2023-01-05T06:49:59;10.90;99.90
9399;DHT22;4739;49.334;8.792;2023-01-05T06:52:25;10.90;99.90
9399;DHT22;4739;49.334;8.792;2023-01-05T06:54:51;10.90;99.90
9399;DHT22;4739;49.334;8.792;2023-01-05T06:57:16;10.90;99.90
9399;DHT22;4739;49.334;8.792;2023-01-05T06:59:42;10.90;99.90
9399;DHT22;4739;49.334;8.792;2023-01-05T07:02:15;10.90;99.90
9399;DHT22;4739;49.334;8.792;2023-01-05T07:04:41;10.90;99.90
9399;DHT22;4739;49.334;8.792;2023-01-05T07:07:07;10.90;99.90
9399;DHT22;4739;49.334;8.792;2023-01-05T07:09:33;10.90;99.90
9399;DHT22;4739;49.334;8.792;2023-01-05T07:11:59;10.90;99.90
9399;DHT22;4739;49.334;8.792;2023-01-05T07:14:24;11.00;99.90
9399;DHT22;4739;49.334;8.792;2023-01-05T07:16:50;11.00;99.90
9399;DHT22;4739;49.334;8.792;2023-01-05T07:19:15;11.00;99.90
9399;DHT22;4739;49.334;8.792;2023-01-05T07:21:41;11.00;99.90
9399;DHT22;4739;49.334;8.792;2023-01-05T07:24:06;11.10;99.90
9399;DHT22;4739;49.334;8.792;2023-01-05T07:26:32;11.10;99.90
9399;DHT22;4739;49.334;8.792;2023-01-05T07:28:58;11.10;99.90
9399;DHT22;4739;49.334;8.792;2023-01-05T07:31:23;11.10;99.90
9399;DHT22;4739;49.334;8.792;2023-01-05T07:33:49;11.10;99.90
9399;DHT22;4739;49.334;8.792;2023-01-05T07:36:14;11.10;99.90
9399;DHT22;4739;49.334;8.792;2023-01-05T07:38:40;11.10;99.90
9399;DHT22;4739;49.334;8.792;2023-01-05T07:41:07;11.20;99.90
9399;DHT22;4739;49.334;8.792;2023-01-05T07:43:32;11.20;99.90
9399;DHT22;4739;49.334;8.792;2023-01-05T07:46:00;11.20;99.90
9399;DHT22;4739;49.334;8.792;2023-01-05T07:48:26;11.20;99.90
9399;DHT22;4739;49.334;8.792;2023-01-05T07:50:51;11.10;99.90
9399;DHT22;4739;49.334;8.792;2023-01-05T07:53:17;11.20;99.90
9399;DHT22;4739;49.334;8.792;2023-01-05T07:55:43;11.10;99.90
9399;DHT22;4739;49.334;8.792;2023-01-05T07:58:08;11.00;99.90
9399;DHT22;4739;49.334;8.792;2023-01-05T08:00:34;11.10;99.90
9399;DHT22;4739;49.334;8.792;2023-01-05T08:02:59;11.10;99.90
9399;DHT22;4739;49.334;8.792;2023-01-05T08:05:25;11.10;99.90
9399;DHT22;4739;49.334;8.792;2023-01-05T08:07:54;11.10;99.90
9399;DHT22;4739;49.334;8.792;2023-01-05T08:10:20;11.10;99.90
9399;DHT22;4739;49.334;8.792;2023-01-05T08:13:01;11.20;99.90
9399;DHT22;4739;49.334;8.792;2023-01-05T08:15:45;11.20;99.90
9399;DHT22;4739;49.334;8.792;2023-01-05T08:18:11;11.40;99.90
9399;DHT22;4739;49.334;8.792;2023-01-05T08:20:37;11.40;99.90
9399;DHT22;4739;49.334;8.792;2023-01-05T08:23:02;11.40;99.90
9399;DHT22;4739;49.334;8.792;2023-01-05T08:25:28;11.50;99.90
9399;DHT22;4739;49.334;8.792;2023-01-05T08:27:53;11.50;99.90
9399;DHT22;4739;49.334;8.792;2023-01-05T08:30:19;11.50;99.90
9399;DHT22;4739;49.334;8.792;2023-01-05T08:32:44;11.50;99.90
9399;DHT22;4739;49.334;8.792;2023-01-05T08:35:10;11.50;99.90
9399;DHT22;4739;49.334;8.792;2023-01-05T08:37:36;11.50;99.90
9399;DHT22;4739;49.334;8.792;2023-01-05T08:40:01;11.50;99.90
9399;DHT22;4739;49.334;8.792;2023-01-05T08:42:27;11.50;99.90
9399;DHT22;4739;49.334;8.792;2023-01-05T08:44:53;11.50;99.90
9399;DHT22;4739;49.334;8.792;2023-01-05T08:47:18;11.50;99.90
9399;DHT22;4739;49.334;8.792;2023-01-05T08:49:44;11.50;99.90
9399;DHT22;4739;49.334;8.792;2023-01-05T08:52:09;11.50;99.90
9399;DHT22;4739;49.334;8.792;2023-01-05T08:54:35;11.50;99.90
9399;DHT22;4739;49.334;8.792;2023-01-05T08:57:01;11.50;99.90
9399;DHT22;4739;49.334;8.792;2023-01-05T08:59:26;11.50;99.90
9399;DHT22;4739;49.334;8.792;2023-01-05T09:01:52;11.60;99.90
9399;DHT22;4739;49.334;8.792;2023-01-05T09:04:17;11.60;99.90
9399;DHT22;4739;49.334;8.792;2023-01-05T09:06:43;11.70;99.90
9399;DHT22;4739;49.334;8.792;2023-01-05T09:09:08;11.70;99.90
9399;DHT22;4739;49.334;8.792;2023-01-05T09:11:35;11.70;99.90
9399;DHT22;4739;49.334;8.792;2023-01-05T09:14:01;11.70;99.90
9399;DHT22;4739;49.334;8.792;2023-01-05T09:16:47;11.80;99.90
9399;DHT22;4739;49.334;8.792;2023-01-05T09:19:13;11.80;99.90
9399;DHT22;4739;49.334;8.792;2023-01-05T09:21:38;11.80;99.90
9399;DHT22;4739;49.334;8.792;2023-01-05T09:24:08;11.70;99.90
9399;DHT22;4739;49.334;8.792;2023-01-05T09:26:37;11.70;99.90
9399;DHT22;4739;49.334;8.792;2023-01-05T09:29:03;11.80;99.90
9399;DHT22;4739;49.334;8.792;2023-01-05T09:31:29;11.90;99.90
9399;DHT22;4739;49.334;8.792;2023-01-05T09:33:56;11.90;99.90
9399;DHT22;4739;49.334;8.792;2023-01-05T09:36:22;12.00;99.90
9399;DHT22;4739;49.334;8.792;2023-01-05T09:38:50;11.90;99.90
9399;DHT22;4739;49.334;8.792;2023-01-05T09:41:35;11.90;99.90
9399;DHT22;4739;49.334;8.792;2023-01-05T09:44:05;11.90;99.90
9399;DHT22;4739;49.334;8.792;2023-01-05T09:46:36;12.00;99.90
9399;DHT22;4739;49.334;8.792;2023-01-05T09:49:04;12.00;99.90
9399;DHT22;4739;49.334;8.792;2023-01-05T09:51:31;12.10;99.90
9399;DHT22;4739;49.334;8.792;2023-01-05T09:53:59;12.20;99.90
9399;DHT22;4739;49.334;8.792;2023-01-05T09:56:31;12.20;99.90
9399;DHT22;4739;49.334;8.792;2023-01-05T09:59:14;12.20;99.90
9399;DHT22;4739;49.334;8.792;2023-01-05T10:01:44;12.30;99.90
9399;DHT22;4739;49.334;8.792;2023-01-05T10:04:14;12.30;99.90
9399;DHT22;4739;49.334;8.792;2023-01-05T10:06:45;12.30;99.90
9399;DHT22;4739;49.334;8.792;2023-01-05T10:09:19;12.40;99.90
9399;DHT22;4739;49.334;8.792;2023-01-05T10:12:15;12.40;99.90
9399;DHT22;4739;49.334;8.792;2023-01-05T10:15:09;12.30;99.90
9399;DHT22;4739;49.334;8.792;2023-01-05T10:17:37;12.40;99.90
9399;DHT22;4739;49.334;8.792;2023-01-05T10:20:17;12.40;99.90
9399;DHT22;4739;49.334;8.792;2023-01-05T10:25:58;12.50;99.90
9399;DHT22;4739;49.334;8.792;2023-01-05T10:31:46;12.60;99.90
9399;DHT22;4739;49.334;8.792;2023-01-05T10:34:20;12.70;99.90
9399;DHT22;4739;49.334;8.792;2023-01-05T10:42:30;12.60;99.90
9399;DHT22;4739;49.334;8.792;2023-01-05T10:45:00;12.60;99.90
9399;DHT22;4739;49.334;8.792;2023-01-05T10:47:30;12.70;99.90
9399;DHT22;4739;49.334;8.792;2023-01-05T10:49:59;12.80;99.90
9399;DHT22;4739;49.334;8.792;2023-01-05T10:52:26;12.80;99.90
9399;DHT22;4739;49.334;8.792;2023-01-05T10:54:59;12.80;99.90
9399;DHT22;4739;49.334;8.792;2023-01-05T11:00:04;12.80;99.90
9399;DHT22;4739;49.334;8.792;2023-01-05T11:02:39;12.70;99.90
9399;DHT22;4739;49.334;8.792;2023-01-05T11:05:22;12.80;99.90
9399;DHT22;4739;49.334;8.792;2023-01-05T11:07:54;13.00;99.90
9399;DHT22;4739;49.334;8.792;2023-01-05T11:10:23;13.10;99.90
9399;DHT22;4739;49.334;8.792;2023-01-05T11:12:59;13.20;99.90
9399;DHT22;4739;49.334;8.792;2023-01-05T11:15:25;13.50;99.90
9399;DHT22;4739;49.334;8.792;2023-01-05T11:17:51;13.60;99.90
9399;DHT22;4739;49.334;8.792;2023-01-05T11:20:17;13.50;99.90
9399;DHT22;4739;49.334;8.792;2023-01-05T11:22:42;13.40;99.90
9399;DHT22;4739;49.334;8.792;2023-01-05T11:25:26;13.20;99.90
9399;DHT22;4739;49.334;8.792;2023-01-05T11:28:08;13.00;99.90
9399;DHT22;4739;49.334;8.792;2023-01-05T11:30:34;12.90;99.90
9399;DHT22;4739;49.334;8.792;2023-01-05T11:33:00;12.80;99.90
9399;DHT22;4739;49.334;8.792;2023-01-05T11:35:30;12.80;99.90
9399;DHT22;4739;49.334;8.792;2023-01-05T11:37:56;12.70;99.90
9399;DHT22;4739;49.334;8.792;2023-01-05T11:40:27;12.70;99.90
9399;DHT22;4739;49.334;8.792;2023-01-05T11:42:54;12.70;99.90
9399;DHT22;4739;49.334;8.792;2023-01-05T11:45:21;12.60;99.90
9399;DHT22;4739;49.334;8.792;2023-01-05T11:47:52;12.50;99.90
9399;DHT22;4739;49.334;8.792;2023-01-05T11:50:21;12.60;99.90
9399;DHT22;4739;49.334;8.792;2023-01-05T11:52:54;12.70;99.90
9399;DHT22;4739;49.334;8.792;2023-01-05T11:57:52;12.70;99.90
9399;DHT22;4739;49.334;8.792;2023-01-05T12:05:51;12.60;99.90
9399;DHT22;4739;49.334;8.792;2023-01-05T12:08:54;12.70;99.90
9399;DHT22;4739;49.334;8.792;2023-01-05T12:11:21;12.80;99.90
9399;DHT22;4739;49.334;8.792;2023-01-05T12:21:47;12.90;99.90
9399;DHT22;4739;49.334;8.792;2023-01-05T12:27:15;12.90;99.90
9399;DHT22;4739;49.334;8.792;2023-01-05T12:29:57;12.90;99.90
9399;DHT22;4739;49.334;8.792;2023-01-05T12:32:47;12.90;99.90
9399;DHT22;4739;49.334;8.792;2023-01-05T12:38:43;12.90;99.90
9399;DHT22;4739;49.334;8.792;2023-01-05T12:53:06;12.80;99.90
9399;DHT22;4739;49.334;8.792;2023-01-05T12:55:45;12.70;99.90
9399;DHT22;4739;49.334;8.792;2023-01-05T12:58:17;12.70;99.90
9399;DHT22;4739;49.334;8.792;2023-01-05T13:00:47;12.70;99.90
9399;DHT22;4739;49.334;8.792;2023-01-05T13:03:40;12.70;99.90
9399;DHT22;4739;49.334;8.792;2023-01-05T13:06:14;12.70;99.90
9399;DHT22;4739;49.334;8.792;2023-01-05T13:08:44;12.70;99.90
9399;DHT22;4739;49.334;8.792;2023-01-05T13:12:14;12.70;99.90
9399;DHT22;4739;49.334;8.792;2023-01-05T13:14:19;12.70;99.90
9399;DHT22;4739;49.334;8.792;2023-01-05T13:16:51;12.60;99.90
9399;DHT22;4739;49.334;8.792;2023-01-05T13:19:34;12.60;99.90
9399;DHT22;4739;49.334;8.792;2023-01-05T13:22:04;12.60;99.90
9399;DHT22;4739;49.334;8.792;2023-01-05T13:24:45;12.60;99.90
9399;DHT22;4739;49.334;8.792;2023-01-05T13:27:14;12.50;99.90
9399;DHT22;4739;49.334;8.792;2023-01-05T13:29:44;12.50;99.90
9399;DHT22;4739;49.334;8.792;2023-01-05T13:32:20;12.30;99.90
9399;DHT22;4739;49.334;8.792;2023-01-05T13:38:00;12.40;99.90
9399;DHT22;4739;49.334;8.792;2023-01-05T13:40:34;12.30;99.90
9399;DHT22;4739;49.334;8.792;2023-01-05T13:49:19;12.30;99.90
9399;DHT22;4739;49.334;8.792;2023-01-05T13:52:04;12.30;99.90
9399;DHT22;4739;49.334;8.792;2023-01-05T13:54:43;12.30;99.90
9399;DHT22;4739;49.334;8.792;2023-01-05T13:57:18;12.30;99.90
9399;DHT22;4739;49.334;8.792;2023-01-05T13:59:49;12.30;99.90
9399;DHT22;4739;49.334;8.792;2023-01-05T14:02:43;12.30;99.90
9399;DHT22;4739;49.334;8.792;2023-01-05T14:05:15;12.30;99.90
9399;DHT22;4739;49.334;8.792;2023-01-05T14:07:46;12.30;99.90
9399;DHT22;4739;49.334;8.792;2023-01-05T14:10:27;12.30;99.90
9399;DHT22;4739;49.334;8.792;2023-01-05T14:12:54;12.30;99.90
9399;DHT22;4739;49.334;8.792;2023-01-05T14:15:33;12.30;99.90
9399;DHT22;4739;49.334;8.792;2023-01-05T14:18:01;12.30;99.90
9399;DHT22;4739;49.334;8.792;2023-01-05T14:25:55;12.30;99.90
9399;DHT22;4739;49.334;8.792;2023-01-05T14:33:56;12.30;99.90
9399;DHT22;4739;49.334;8.792;2023-01-05T14:36:34;12.10;99.90
9399;DHT22;4739;49.334;8.792;2023-01-05T14:39:02;12.10;99.90
9399;DHT22;4739;49.334;8.792;2023-01-05T14:41:29;12.10;99.90
9399;DHT22;4739;49.334;8.792;2023-01-05T14:44:02;12.10;99.90
9399;DHT22;4739;49.334;8.792;2023-01-05T14:46:53;12.10;99.90
9399;DHT22;4739;49.334;8.792;2023-01-05T14:49:38;12.10;99.90
9399;DHT22;4739;49.334;8.792;2023-01-05T14:52:16;12.10;99.90
9399;DHT22;4739;49.334;8.792;2023-01-05T15:00:17;12.20;99.90
9399;DHT22;4739;49.334;8.792;2023-01-05T15:05:31;12.20;99.90
9399;DHT22;4739;49.334;8.792;2023-01-05T15:11:19;12.20;99.90
9399;DHT22;4739;49.334;8.792;2023-01-05T15:13:59;12.30;99.90
9399;DHT22;4739;49.334;8.792;2023-01-05T15:16:55;12.30;99.90
9399;DHT22;4739;49.334;8.792;2023-01-05T15:33:18;12.00;99.90
9399;DHT22;4739;49.334;8.792;2023-01-05T15:36:11;12.00;99.90
9399;DHT22;4739;49.334;8.792;2023-01-05T15:38:45;11.90;99.90
9399;DHT22;4739;49.334;8.792;2023-01-05T15:41:12;11.90;99.90
9399;DHT22;4739;49.334;8.792;2023-01-05T15:43:40;11.90;99.90
9399;DHT22;4739;49.334;8.792;2023-01-05T15:46:07;11.90;99.90
9399;DHT22;4739;49.334;8.792;2023-01-05T15:48:42;11.80;99.90
9399;DHT22;4739;49.334;8.792;2023-01-05T15:51:08;11.90;99.90
9399;DHT22;4739;49.334;8.792;2023-01-05T15:53:39;11.90;99.90
9399;DHT22;4739;49.334;8.792;2023-01-05T15:56:22;11.90;99.90
9399;DHT22;4739;49.334;8.792;2023-01-05T15:58:50;11.90;99.90
9399;DHT22;4739;49.334;8.792;2023-01-05T16:01:15;11.90;99.90
9399;DHT22;4739;49.334;8.792;2023-01-05T16:03:43;11.90;99.90
9399;DHT22;4739;49.334;8.792;2023-01-05T16:08:49;12.00;99.90
9399;DHT22;4739;49.334;8.792;2023-01-05T16:11:24;11.90;99.90
9399;DHT22;4739;49.334;8.792;2023-01-05T16:13:58;11.90;99.90
9399;DHT22;4739;49.334;8.792;2023-01-05T16:16:38;11.90;99.90
9399;DHT22;4739;49.334;8.792;2023-01-05T16:19:13;11.90;99.90
9399;DHT22;4739;49.334;8.792;2023-01-05T16:24:42;11.90;99.90
9399;DHT22;4739;49.334;8.792;2023-01-05T16:27:12;11.70;99.90
9399;DHT22;4739;49.334;8.792;2023-01-05T16:29:41;11.70;99.90
9399;DHT22;4739;49.334;8.792;2023-01-05T16:32:27;11.60;99.90
9399;DHT22;4739;49.334;8.792;2023-01-05T16:35:28;11.50;99.90
9399;DHT22;4739;49.334;8.792;2023-01-05T16:40:35;11.50;99.90
9399;DHT22;4739;49.334;8.792;2023-01-05T16:43:04;11.40;99.90
9399;DHT22;4739;49.334;8.792;2023-01-05T16:45:39;11.40;99.90
9399;DHT22;4739;49.334;8.792;2023-01-05T16:54:19;11.30;99.90
9399;DHT22;4739;49.334;8.792;2023-01-05T16:56:49;11.20;99.90
9399;DHT22;4739;49.334;8.792;2023-01-05T16:59:44;11.20;99.90
9399;DHT22;4739;49.334;8.792;2023-01-05T17:02:28;11.20;99.90
9399;DHT22;4739;49.334;8.792;2023-01-05T17:04:54;11.20;99.90
9399;DHT22;4739;49.334;8.792;2023-01-05T17:07:20;11.30;99.90
9399;DHT22;4739;49.334;8.792;2023-01-05T17:09:46;11.10;99.90
9399;DHT22;4739;49.334;8.792;2023-01-05T17:12:12;11.00;99.90
9399;DHT22;4739;49.334;8.792;2023-01-05T17:14:38;11.10;99.90
9399;DHT22;4739;49.334;8.792;2023-01-05T17:17:07;11.10;99.90
9399;DHT22;4739;49.334;8.792;2023-01-05T17:19:34;11.10;99.90
9399;DHT22;4739;49.334;8.792;2023-01-05T17:22:01;11.10;99.90
9399;DHT22;4739;49.334;8.792;2023-01-05T17:24:28;11.20;99.90
9399;DHT22;4739;49.334;8.792;2023-01-05T17:26:55;11.20;99.90
9399;DHT22;4739;49.334;8.792;2023-01-05T17:29:26;11.20;99.90
9399;DHT22;4739;49.334;8.792;2023-01-05T17:31:52;11.20;99.90
9399;DHT22;4739;49.334;8.792;2023-01-05T17:34:18;11.20;99.90
9399;DHT22;4739;49.334;8.792;2023-01-05T17:36:45;11.20;99.90
9399;DHT22;4739;49.334;8.792;2023-01-05T17:39:15;11.10;99.90
9399;DHT22;4739;49.334;8.792;2023-01-05T17:41:41;11.10;99.90
9399;DHT22;4739;49.334;8.792;2023-01-05T17:44:07;11.00;99.90
9399;DHT22;4739;49.334;8.792;2023-01-05T17:46:37;11.00;99.90
9399;DHT22;4739;49.334;8.792;2023-01-05T17:49:03;11.00;99.90
9399;DHT22;4739;49.334;8.792;2023-01-05T17:51:30;11.00;99.90
9399;DHT22;4739;49.334;8.792;2023-01-05T17:53:57;11.00;99.90
9399;DHT22;4739;49.334;8.792;2023-01-05T17:56:23;10.90;99.90
9399;DHT22;4739;49.334;8.792;2023-01-05T17:58:49;10.80;99.90
9399;DHT22;4739;49.334;8.792;2023-01-05T18:01:14;10.90;99.90
9399;DHT22;4739;49.334;8.792;2023-01-05T18:03:40;10.90;99.90
9399;DHT22;4739;49.334;8.792;2023-01-05T18:06:06;10.80;99.90
9399;DHT22;4739;49.334;8.792;2023-01-05T18:08:34;10.70;99.90
9399;DHT22;4739;49.334;8.792;2023-01-05T18:11:01;10.70;99.90
9399;DHT22;4739;49.334;8.792;2023-01-05T18:13:27;10.60;99.90
9399;DHT22;4739;49.334;8.792;2023-01-05T18:15:53;10.60;99.90
9399;DHT22;4739;49.334;8.792;2023-01-05T18:18:21;10.50;99.90
9399;DHT22;4739;49.334;8.792;2023-01-05T18:20:47;10.40;99.90
9399;DHT22;4739;49.334;8.792;2023-01-05T18:23:15;10.50;99.90
9399;DHT22;4739;49.334;8.792;2023-01-05T18:25:41;10.50;99.90